sensor_id;sensor_type;location;lat;lon;timestamp;P1;durP1;ratioP1;P2;durP2;ratioP2
7231;SDS011;3657;49.630;11.018;2023-05-09T00:00:26;9.43;;;9.03;;
7231;SDS011;3657;49.630;11.018;2023-05-09T00:02:53;8.70;;;8.50;;
7231;SDS011;3657;49.630;11.018;2023-05-09T00:05:20;9.40;;;9.10;;
7231;SDS011;3657;49.630;11.018;2023-05-09T00:07:47;8.97;;;8.67;;
7231;SDS011;3657;49.630;11.018;2023-05-09T00:10:14;9.27;;;8.90;;
7231;SDS011;3657;49.630;11.018;2023-05-09T00:12:42;9.80;;;9.50;;
7231;SDS011;3657;49.630;11.018;2023-05-09T00:15:09;9.07;;;8.77;;
7231;SDS011;3657;49.630;11.018;2023-05-09T00:17:36;7.90;;;7.63;;
7231;SDS011;3657;49.630;11.018;2023-05-09T00:20:04;9.17;;;8.77;;
7231;SDS011;3657;49.630;11.018;2023-05-09T00:22:34;8.70;;;8.47;;
7231;SDS011;3657;49.630;11.018;2023-05-09T00:25:01;9.27;;;8.87;;
7231;SDS011;3657;49.630;11.018;2023-05-09T00:27:28;8.90;;;8.63;;
7231;SDS011;3657;49.630;11.018;2023-05-09T00:29:56;8.03;;;7.83;;
7231;SDS011;3657;49.630;11.018;2023-05-09T00:32:23;9.70;;;9.40;;
7231;SDS011;3657;49.630;11.018;2023-05-09T00:34:50;9.83;;;9.43;;
7231;SDS011;3657;49.630;11.018;2023-05-09T00:37:17;9.23;;;8.83;;
7231;SDS011;3657;49.630;11.018;2023-05-09T00:39:45;9.27;;;8.97;;
7231;SDS011;3657;49.630;11.018;2023-05-09T00:42:12;10.20;;;9.80;;
7231;SDS011;3657;49.630;11.018;2023-05-09T00:44:39;10.30;;;10.00;;
7231;SDS011;3657;49.630;11.018;2023-05-09T00:47:07;9.73;;;9.43;;
7231;SDS011;3657;49.630;11.018;2023-05-09T00:49:33;8.50;;;8.20;;
7231;SDS011;3657;49.630;11.018;2023-05-09T00:52:00;9.50;;;9.10;;
7231;SDS011;3657;49.630;11.018;2023-05-09T00:54:28;10.03;;;9.63;;
7231;SDS011;3657;49.630;11.018;2023-05-09T00:56:55;10.17;;;9.87;;
7231;SDS011;3657;49.630;11.018;2023-05-09T00:59:22;9.10;;;8.90;;
7231;SDS011;3657;49.630;11.018;2023-05-09T01:01:49;9.20;;;8.90;;
7231;SDS011;3657;49.630;11.018;2023-05-09T01:04:17;10.03;;;9.63;;
7231;SDS011;3657;49.630;11.018;2023-05-09T01:06:47;9.00;;;8.60;;
7231;SDS011;3657;49.630;11.018;2023-05-09T01:09:22;9.57;;;9.27;;
7231;SDS011;3657;49.630;11.018;2023-05-09T01:11:56;9.13;;;8.83;;
7231;SDS011;3657;49.630;11.018;2023-05-09T01:14:32;7.70;;;7.50;;
7231;SDS011;3657;49.630;11.018;2023-05-09T01:17:08;8.73;;;8.50;;
7231;SDS011;3657;49.630;11.018;2023-05-09T01:19:47;8.97;;;8.67;;
7231;SDS011;3657;49.630;11.018;2023-05-09T01:22:22;9.60;;;9.30;;
7231;SDS011;3657;49.630;11.018;2023-05-09T01:25:04;9.93;;;9.63;;
7231;SDS011;3657;49.630;11.018;2023-05-09T01:27:38;10.33;;;9.93;;
7231;SDS011;3657;49.630;11.018;2023-05-09T01:30:14;9.80;;;9.37;;
7231;SDS011;3657;49.630;11.018;2023-05-09T01:32:42;10.50;;;10.13;;
7231;SDS011;3657;49.630;11.018;2023-05-09T01:35:12;9.90;;;9.40;;
7231;SDS011;3657;49.630;11.018;2023-05-09T01:37:41;8.77;;;8.47;;
7231;SDS011;3657;49.630;11.018;2023-05-09T01:40:10;9.03;;;8.73;;
7231;SDS011;3657;49.630;11.018;2023-05-09T01:42:41;8.57;;;8.30;;
7231;SDS011;3657;49.630;11.018;2023-05-09T01:45:10;8.73;;;8.43;;
7231;SDS011;3657;49.630;11.018;2023-05-09T01:47:39;9.47;;;9.17;;
7231;SDS011;3657;49.630;11.018;2023-05-09T01:50:08;9.60;;;9.30;;
7231;SDS011;3657;49.630;11.018;2023-05-09T01:52:37;10.10;;;9.73;;
7231;SDS011;3657;49.630;11.018;2023-05-09T01:55:07;10.20;;;9.90;;
7231;SDS011;3657;49.630;11.018;2023-05-09T01:57:35;8.90;;;8.60;;
7231;SDS011;3657;49.630;11.018;2023-05-09T02:00:04;9.97;;;9.67;;
7231;SDS011;3657;49.630;11.018;2023-05-09T02:02:34;10.20;;;9.90;;
7231;SDS011;3657;49.630;11.018;2023-05-09T02:05:03;10.90;;;10.50;;
7231;SDS011;3657;49.630;11.018;2023-05-09T02:07:31;10.37;;;9.97;;
7231;SDS011;3657;49.630;11.018;2023-05-09T02:09:59;10.43;;;10.00;;
7231;SDS011;3657;49.630;11.018;2023-05-09T02:12:28;9.37;;;9.07;;
7231;SDS011;3657;49.630;11.018;2023-05-09T02:14:55;10.60;;;10.20;;
7231;SDS011;3657;49.630;11.018;2023-05-09T02:17:22;10.97;;;10.47;;
7231;SDS011;3657;49.630;11.018;2023-05-09T02:19:48;11.00;;;10.50;;
7231;SDS011;3657;49.630;11.018;2023-05-09T02:22:16;9.43;;;9.13;;
7231;SDS011;3657;49.630;11.018;2023-05-09T02:24:43;9.50;;;9.17;;
7231;SDS011;3657;49.630;11.018;2023-05-09T02:27:10;11.40;;;10.90;;
7231;SDS011;3657;49.630;11.018;2023-05-09T02:29:39;10.83;;;10.43;;
7231;SDS011;3657;49.630;11.018;2023-05-09T02:32:11;11.07;;;10.67;;
7231;SDS011;3657;49.630;11.018;2023-05-09T02:34:41;10.00;;;9.70;;
7231;SDS011;3657;49.630;11.018;2023-05-09T02:37:09;12.20;;;11.80;;
7231;SDS011;3657;49.630;11.018;2023-05-09T02:39:37;10.97;;;10.57;;
7231;SDS011;3657;49.630;11.018;2023-05-09T02:42:05;11.33;;;10.93;;
7231;SDS011;3657;49.630;11.018;2023-05-09T02:44:35;10.80;;;10.40;;
7231;SDS011;3657;49.630;11.018;2023-05-09T02:47:02;11.73;;;11.33;;
7231;SDS011;3657;49.630;11.018;2023-05-09T02:49:30;11.30;;;10.80;;
7231;SDS011;3657;49.630;11.018;2023-05-09T02:51:57;11.30;;;10.83;;
7231;SDS011;3657;49.630;11.018;2023-05-09T02:54:23;9.60;;;9.20;;
7231;SDS011;3657;49.630;11.018;2023-05-09T02:56:51;11.27;;;10.83;;
7231;SDS011;3657;49.630;11.018;2023-05-09T02:59:18;9.77;;;9.37;;
7231;SDS011;3657;49.630;11.018;2023-05-09T03:01:45;11.97;;;11.57;;
7231;SDS011;3657;49.630;11.018;2023-05-09T03:04:12;11.90;;;11.37;;
7231;SDS011;3657;49.630;11.018;2023-05-09T03:06:38;10.97;;;10.57;;
7231;SDS011;3657;49.630;11.018;2023-05-09T03:09:05;10.50;;;10.20;;
7231;SDS011;3657;49.630;11.018;2023-05-09T03:11:32;11.20;;;10.80;;
7231;SDS011;3657;49.630;11.018;2023-05-09T03:14:01;11.40;;;10.97;;
7231;SDS011;3657;49.630;11.018;2023-05-09T03:16:28;10.97;;;10.57;;
7231;SDS011;3657;49.630;11.018;2023-05-09T03:18:55;10.03;;;9.73;;
7231;SDS011;3657;49.630;11.018;2023-05-09T03:21:22;10.47;;;10.07;;
7231;SDS011;3657;49.630;11.018;2023-05-09T03:23:49;10.33;;;10.03;;
7231;SDS011;3657;49.630;11.018;2023-05-09T03:26:15;10.30;;;9.90;;
7231;SDS011;3657;49.630;11.018;2023-05-09T03:28:42;12.30;;;11.87;;
7231;SDS011;3657;49.630;11.018;2023-05-09T03:31:10;11.07;;;10.57;;
7231;SDS011;3657;49.630;11.018;2023-05-09T03:33:37;10.00;;;9.70;;
7231;SDS011;3657;49.630;11.018;2023-05-09T03:36:04;10.03;;;9.70;;
7231;SDS011;3657;49.630;11.018;2023-05-09T03:38:30;11.50;;;11.10;;
7231;SDS011;3657;49.630;11.018;2023-05-09T03:40:57;10.83;;;10.43;;
7231;SDS011;3657;49.630;11.018;2023-05-09T03:43:24;10.60;;;10.20;;
7231;SDS011;3657;49.630;11.018;2023-05-09T03:45:51;11.20;;;10.70;;
7231;SDS011;3657;49.630;11.018;2023-05-09T03:48:19;11.97;;;11.57;;
7231;SDS011;3657;49.630;11.018;2023-05-09T03:50:46;11.23;;;10.83;;
7231;SDS011;3657;49.630;11.018;2023-05-09T03:53:13;11.20;;;10.70;;
7231;SDS011;3657;49.630;11.018;2023-05-09T03:55:39;9.87;;;9.37;;
7231;SDS011;3657;49.630;11.018;2023-05-09T03:58:06;10.03;;;9.63;;
7231;SDS011;3657;49.630;11.018;2023-05-09T04:00:33;11.00;;;10.60;;
7231;SDS011;3657;49.630;11.018;2023-05-09T04:03:00;10.57;;;10.27;;
7231;SDS011;3657;49.630;11.018;2023-05-09T04:05:28;10.33;;;9.93;;
7231;SDS011;3657;49.630;11.018;2023-05-09T04:07:54;9.47;;;9.17;;
7231;SDS011;3657;49.630;11.018;2023-05-09T04:10:21;10.90;;;10.50;;
7231;SDS011;3657;49.630;11.018;2023-05-09T04:12:49;11.70;;;11.30;;
7231;SDS011;3657;49.630;11.018;2023-05-09T04:15:16;11.17;;;10.77;;
7231;SDS011;3657;49.630;11.018;2023-05-09T04:17:42;18.63;;;17.33;;
7231;SDS011;3657;49.630;11.018;2023-05-09T04:20:10;14.03;;;13.30;;
7231;SDS011;3657;49.630;11.018;2023-05-09T04:22:38;14.43;;;13.73;;
7231;SDS011;3657;49.630;11.018;2023-05-09T04:25:05;13.03;;;12.50;;
7231;SDS011;3657;49.630;11.018;2023-05-09T04:27:36;12.93;;;12.30;;
7231;SDS011;3657;49.630;11.018;2023-05-09T04:30:03;13.53;;;12.93;;
7231;SDS011;3657;49.630;11.018;2023-05-09T04:32:31;12.10;;;11.60;;
7231;SDS011;3657;49.630;11.018;2023-05-09T04:34:59;13.37;;;12.77;;
7231;SDS011;3657;49.630;11.018;2023-05-09T04:37:26;13.23;;;12.67;;
7231;SDS011;3657;49.630;11.018;2023-05-09T04:39:54;13.20;;;12.70;;
7231;SDS011;3657;49.630;11.018;2023-05-09T04:42:21;14.43;;;13.83;;
7231;SDS011;3657;49.630;11.018;2023-05-09T04:44:48;12.63;;;11.87;;
7231;SDS011;3657;49.630;11.018;2023-05-09T04:47:15;12.57;;;12.07;;
7231;SDS011;3657;49.630;11.018;2023-05-09T04:49:42;12.63;;;12.10;;
7231;SDS011;3657;49.630;11.018;2023-05-09T04:52:09;11.97;;;11.50;;
7231;SDS011;3657;49.630;11.018;2023-05-09T04:54:35;13.67;;;13.07;;
7231;SDS011;3657;49.630;11.018;2023-05-09T04:57:03;12.13;;;11.63;;
7231;SDS011;3657;49.630;11.018;2023-05-09T04:59:30;13.13;;;12.60;;
7231;SDS011;3657;49.630;11.018;2023-05-09T05:01:57;13.03;;;12.53;;
7231;SDS011;3657;49.630;11.018;2023-05-09T05:04:24;10.77;;;10.37;;
7231;SDS011;3657;49.630;11.018;2023-05-09T05:06:50;12.63;;;12.13;;
7231;SDS011;3657;49.630;11.018;2023-05-09T05:09:17;12.53;;;12.10;;
7231;SDS011;3657;49.630;11.018;2023-05-09T05:11:44;10.30;;;10.00;;
7231;SDS011;3657;49.630;11.018;2023-05-09T05:14:12;11.70;;;11.30;;
7231;SDS011;3657;49.630;11.018;2023-05-09T05:16:39;12.40;;;11.93;;
7231;SDS011;3657;49.630;11.018;2023-05-09T05:19:05;13.93;;;13.10;;
7231;SDS011;3657;49.630;11.018;2023-05-09T05:21:32;14.17;;;13.47;;
7231;SDS011;3657;49.630;11.018;2023-05-09T05:23:58;13.10;;;12.60;;
7231;SDS011;3657;49.630;11.018;2023-05-09T05:26:25;11.77;;;11.37;;
7231;SDS011;3657;49.630;11.018;2023-05-09T05:28:53;14.63;;;13.70;;
7231;SDS011;3657;49.630;11.018;2023-05-09T05:31:22;11.50;;;11.00;;
7231;SDS011;3657;49.630;11.018;2023-05-09T05:33:49;10.43;;;10.13;;
7231;SDS011;3657;49.630;11.018;2023-05-09T05:36:15;12.63;;;12.13;;
7231;SDS011;3657;49.630;11.018;2023-05-09T05:38:42;11.00;;;10.60;;
7231;SDS011;3657;49.630;11.018;2023-05-09T05:41:09;12.27;;;11.77;;
7231;SDS011;3657;49.630;11.018;2023-05-09T05:43:36;14.37;;;13.63;;
7231;SDS011;3657;49.630;11.018;2023-05-09T05:46:03;12.27;;;11.77;;
7231;SDS011;3657;49.630;11.018;2023-05-09T05:48:31;12.63;;;12.13;;
7231;SDS011;3657;49.630;11.018;2023-05-09T05:50:57;11.17;;;10.77;;
7231;SDS011;3657;49.630;11.018;2023-05-09T05:53:24;13.23;;;12.73;;
7231;SDS011;3657;49.630;11.018;2023-05-09T05:55:51;12.20;;;11.80;;
7231;SDS011;3657;49.630;11.018;2023-05-09T05:58:18;12.80;;;12.30;;
7231;SDS011;3657;49.630;11.018;2023-05-09T06:00:44;14.77;;;14.17;;
7231;SDS011;3657;49.630;11.018;2023-05-09T06:03:11;13.93;;;13.23;;
7231;SDS011;3657;49.630;11.018;2023-05-09T06:05:41;13.73;;;13.03;;
7231;SDS011;3657;49.630;11.018;2023-05-09T06:08:08;14.83;;;14.13;;
7231;SDS011;3657;49.630;11.018;2023-05-09T06:10:35;14.10;;;13.37;;
7231;SDS011;3657;49.630;11.018;2023-05-09T06:13:02;14.43;;;13.70;;
7231;SDS011;3657;49.630;11.018;2023-05-09T06:15:28;13.67;;;13.07;;
7231;SDS011;3657;49.630;11.018;2023-05-09T06:17:55;14.67;;;13.97;;
7231;SDS011;3657;49.630;11.018;2023-05-09T06:20:22;13.20;;;12.60;;
7231;SDS011;3657;49.630;11.018;2023-05-09T06:22:50;16.47;;;15.67;;
7231;SDS011;3657;49.630;11.018;2023-05-09T06:25:17;15.00;;;14.30;;
7231;SDS011;3657;49.630;11.018;2023-05-09T06:27:43;14.80;;;14.10;;
7231;SDS011;3657;49.630;11.018;2023-05-09T06:30:13;14.80;;;14.10;;
7231;SDS011;3657;49.630;11.018;2023-05-09T06:32:40;15.30;;;14.60;;
7231;SDS011;3657;49.630;11.018;2023-05-09T06:35:06;14.30;;;13.50;;
7231;SDS011;3657;49.630;11.018;2023-05-09T06:37:33;15.00;;;14.20;;
7231;SDS011;3657;49.630;11.018;2023-05-09T06:40:01;12.87;;;12.30;;
7231;SDS011;3657;49.630;11.018;2023-05-09T06:42:28;14.17;;;13.47;;
7231;SDS011;3657;49.630;11.018;2023-05-09T06:44:57;12.33;;;11.63;;
7231;SDS011;3657;49.630;11.018;2023-05-09T06:47:24;12.23;;;11.73;;
7231;SDS011;3657;49.630;11.018;2023-05-09T06:49:54;13.83;;;13.23;;
7231;SDS011;3657;49.630;11.018;2023-05-09T06:52:20;13.63;;;12.93;;
7231;SDS011;3657;49.630;11.018;2023-05-09T06:54:47;12.87;;;12.33;;
7231;SDS011;3657;49.630;11.018;2023-05-09T06:57:18;14.33;;;13.60;;
7231;SDS011;3657;49.630;11.018;2023-05-09T06:59:45;12.30;;;11.70;;
7231;SDS011;3657;49.630;11.018;2023-05-09T07:02:12;12.40;;;12.00;;
7231;SDS011;3657;49.630;11.018;2023-05-09T07:04:39;12.27;;;11.87;;
7231;SDS011;3657;49.630;11.018;2023-05-09T07:07:05;11.50;;;11.13;;
7231;SDS011;3657;49.630;11.018;2023-05-09T07:09:32;11.93;;;11.37;;
7231;SDS011;3657;49.630;11.018;2023-05-09T07:11:59;11.07;;;10.73;;
7231;SDS011;3657;49.630;11.018;2023-05-09T07:14:27;11.87;;;11.27;;
7231;SDS011;3657;49.630;11.018;2023-05-09T07:16:54;10.83;;;10.43;;
7231;SDS011;3657;49.630;11.018;2023-05-09T07:19:20;11.57;;;11.07;;
7231;SDS011;3657;49.630;11.018;2023-05-09T07:21:47;11.37;;;10.87;;
7231;SDS011;3657;49.630;11.018;2023-05-09T07:24:14;10.97;;;10.53;;
7231;SDS011;3657;49.630;11.018;2023-05-09T07:26:40;10.97;;;10.57;;
7231;SDS011;3657;49.630;11.018;2023-05-09T07:29:07;10.50;;;10.00;;
7231;SDS011;3657;49.630;11.018;2023-05-09T07:31:35;10.97;;;10.57;;
7231;SDS011;3657;49.630;11.018;2023-05-09T07:34:02;10.90;;;10.50;;
7231;SDS011;3657;49.630;11.018;2023-05-09T07:36:28;10.27;;;9.87;;
7231;SDS011;3657;49.630;11.018;2023-05-09T07:38:55;10.10;;;9.80;;
7231;SDS011;3657;49.630;11.018;2023-05-09T07:41:22;11.73;;;11.13;;
7231;SDS011;3657;49.630;11.018;2023-05-09T07:43:48;10.23;;;9.93;;
7231;SDS011;3657;49.630;11.018;2023-05-09T07:46:15;8.93;;;8.47;;
7231;SDS011;3657;49.630;11.018;2023-05-09T07:48:43;11.90;;;11.40;;
7231;SDS011;3657;49.630;11.018;2023-05-09T07:51:10;12.30;;;11.67;;
7231;SDS011;3657;49.630;11.018;2023-05-09T07:53:36;12.03;;;11.43;;
7231;SDS011;3657;49.630;11.018;2023-05-09T07:56:03;11.63;;;11.23;;
7231;SDS011;3657;49.630;11.018;2023-05-09T07:58:31;12.37;;;11.87;;
7231;SDS011;3657;49.630;11.018;2023-05-09T08:00:58;11.87;;;11.33;;
7231;SDS011;3657;49.630;11.018;2023-05-09T08:03:25;10.33;;;10.03;;
7231;SDS011;3657;49.630;11.018;2023-05-09T08:05:53;10.73;;;10.27;;
7231;SDS011;3657;49.630;11.018;2023-05-09T08:08:21;12.50;;;11.80;;
7231;SDS011;3657;49.630;11.018;2023-05-09T08:10:47;10.60;;;10.00;;
7231;SDS011;3657;49.630;11.018;2023-05-09T08:13:14;11.10;;;10.60;;
7231;SDS011;3657;49.630;11.018;2023-05-09T08:15:42;11.40;;;11.00;;
7231;SDS011;3657;49.630;11.018;2023-05-09T08:18:09;11.13;;;10.73;;
7231;SDS011;3657;49.630;11.018;2023-05-09T08:20:36;10.17;;;9.77;;
7231;SDS011;3657;49.630;11.018;2023-05-09T08:23:04;10.10;;;9.60;;
7231;SDS011;3657;49.630;11.018;2023-05-09T08:25:31;11.80;;;11.33;;
7231;SDS011;3657;49.630;11.018;2023-05-09T08:27:57;10.97;;;10.57;;
7231;SDS011;3657;49.630;11.018;2023-05-09T08:30:24;9.80;;;9.50;;
7231;SDS011;3657;49.630;11.018;2023-05-09T08:32:53;8.70;;;8.40;;
7231;SDS011;3657;49.630;11.018;2023-05-09T08:35:19;10.20;;;9.80;;
7231;SDS011;3657;49.630;11.018;2023-05-09T08:37:46;10.10;;;9.60;;
7231;SDS011;3657;49.630;11.018;2023-05-09T08:40:14;10.20;;;9.90;;
7231;SDS011;3657;49.630;11.018;2023-05-09T08:42:42;9.77;;;9.37;;
7231;SDS011;3657;49.630;11.018;2023-05-09T08:45:10;9.80;;;9.50;;
7231;SDS011;3657;49.630;11.018;2023-05-09T08:47:39;9.53;;;9.23;;
7231;SDS011;3657;49.630;11.018;2023-05-09T08:50:07;9.90;;;9.50;;
7231;SDS011;3657;49.630;11.018;2023-05-09T08:52:35;9.33;;;9.03;;
7231;SDS011;3657;49.630;11.018;2023-05-09T08:55:02;9.80;;;9.20;;
7231;SDS011;3657;49.630;11.018;2023-05-09T08:57:32;9.30;;;9.00;;
7231;SDS011;3657;49.630;11.018;2023-05-09T09:00:00;7.73;;;7.53;;
7231;SDS011;3657;49.630;11.018;2023-05-09T09:02:28;9.60;;;9.20;;
7231;SDS011;3657;49.630;11.018;2023-05-09T09:04:55;9.73;;;9.43;;
7231;SDS011;3657;49.630;11.018;2023-05-09T09:07:22;8.30;;;8.00;;
7231;SDS011;3657;49.630;11.018;2023-05-09T09:09:50;8.70;;;8.40;;
7231;SDS011;3657;49.630;11.018;2023-05-09T09:12:20;9.00;;;8.43;;
7231;SDS011;3657;49.630;11.018;2023-05-09T09:14:51;8.30;;;8.10;;
7231;SDS011;3657;49.630;11.018;2023-05-09T09:17:21;8.50;;;8.00;;
7231;SDS011;3657;49.630;11.018;2023-05-09T09:19:52;8.80;;;8.40;;
7231;SDS011;3657;49.630;11.018;2023-05-09T09:22:21;7.37;;;7.13;;
7231;SDS011;3657;49.630;11.018;2023-05-09T09:24:49;10.13;;;9.57;;
7231;SDS011;3657;49.630;11.018;2023-05-09T09:27:16;8.70;;;8.40;;
7231;SDS011;3657;49.630;11.018;2023-05-09T09:29:43;8.07;;;7.63;;
7231;SDS011;3657;49.630;11.018;2023-05-09T09:32:11;7.47;;;7.27;;
7231;SDS011;3657;49.630;11.018;2023-05-09T09:34:38;8.13;;;7.93;;
7231;SDS011;3657;49.630;11.018;2023-05-09T09:37:05;8.17;;;7.87;;
7231;SDS011;3657;49.630;11.018;2023-05-09T09:39:32;8.07;;;7.77;;
7231;SDS011;3657;49.630;11.018;2023-05-09T09:42:04;7.00;;;6.73;;
7231;SDS011;3657;49.630;11.018;2023-05-09T09:44:35;8.00;;;7.80;;
7231;SDS011;3657;49.630;11.018;2023-05-09T09:47:02;8.23;;;8.03;;
7231;SDS011;3657;49.630;11.018;2023-05-09T09:49:30;7.23;;;6.93;;
7231;SDS011;3657;49.630;11.018;2023-05-09T09:51:57;7.70;;;7.47;;
7231;SDS011;3657;49.630;11.018;2023-05-09T09:54:24;7.67;;;7.47;;
7231;SDS011;3657;49.630;11.018;2023-05-09T09:56:52;8.17;;;7.87;;
7231;SDS011;3657;49.630;11.018;2023-05-09T09:59:20;6.67;;;6.37;;
7231;SDS011;3657;49.630;11.018;2023-05-09T10:01:53;7.27;;;7.07;;
7231;SDS011;3657;49.630;11.018;2023-05-09T10:04:21;7.40;;;7.20;;
7231;SDS011;3657;49.630;11.018;2023-05-09T10:06:53;7.00;;;6.70;;
7231;SDS011;3657;49.630;11.018;2023-05-09T10:09:21;6.83;;;6.63;;
7231;SDS011;3657;49.630;11.018;2023-05-09T10:11:49;6.73;;;6.53;;
7231;SDS011;3657;49.630;11.018;2023-05-09T10:14:17;7.13;;;6.93;;
7231;SDS011;3657;49.630;11.018;2023-05-09T10:16:45;6.87;;;6.67;;
7231;SDS011;3657;49.630;11.018;2023-05-09T10:19:13;6.13;;;5.87;;
7231;SDS011;3657;49.630;11.018;2023-05-09T10:21:47;7.13;;;6.87;;
7231;SDS011;3657;49.630;11.018;2023-05-09T10:24:20;6.40;;;6.20;;
7231;SDS011;3657;49.630;11.018;2023-05-09T10:26:52;6.87;;;6.23;;
7231;SDS011;3657;49.630;11.018;2023-05-09T10:29:28;6.73;;;6.53;;
7231;SDS011;3657;49.630;11.018;2023-05-09T10:31:58;6.33;;;6.13;;
7231;SDS011;3657;49.630;11.018;2023-05-09T10:34:30;6.30;;;6.10;;
7231;SDS011;3657;49.630;11.018;2023-05-09T10:37:00;6.03;;;5.73;;
7231;SDS011;3657;49.630;11.018;2023-05-09T10:39:28;6.80;;;6.60;;
7231;SDS011;3657;49.630;11.018;2023-05-09T10:41:56;6.33;;;6.13;;
7231;SDS011;3657;49.630;11.018;2023-05-09T10:44:24;6.17;;;5.97;;
7231;SDS011;3657;49.630;11.018;2023-05-09T10:46:52;5.43;;;5.23;;
7231;SDS011;3657;49.630;11.018;2023-05-09T10:49:19;6.47;;;6.27;;
7231;SDS011;3657;49.630;11.018;2023-05-09T10:51:48;6.03;;;5.83;;
7231;SDS011;3657;49.630;11.018;2023-05-09T10:54:25;5.37;;;5.17;;
7231;SDS011;3657;49.630;11.018;2023-05-09T10:56:54;5.70;;;5.50;;
7231;SDS011;3657;49.630;11.018;2023-05-09T10:59:32;5.70;;;5.50;;
7231;SDS011;3657;49.630;11.018;2023-05-09T11:02:00;5.20;;;5.00;;
7231;SDS011;3657;49.630;11.018;2023-05-09T11:04:28;6.13;;;5.83;;
7231;SDS011;3657;49.630;11.018;2023-05-09T11:06:55;5.87;;;5.57;;
7231;SDS011;3657;49.630;11.018;2023-05-09T11:09:23;6.30;;;6.10;;
7231;SDS011;3657;49.630;11.018;2023-05-09T11:12:00;5.93;;;5.73;;
7231;SDS011;3657;49.630;11.018;2023-05-09T11:14:37;5.90;;;5.80;;
7231;SDS011;3657;49.630;11.018;2023-05-09T11:17:05;5.60;;;5.40;;
7231;SDS011;3657;49.630;11.018;2023-05-09T11:19:33;5.87;;;5.67;;
7231;SDS011;3657;49.630;11.018;2023-05-09T11:22:10;5.93;;;5.77;;
7231;SDS011;3657;49.630;11.018;2023-05-09T11:24:39;5.83;;;5.73;;
7231;SDS011;3657;49.630;11.018;2023-05-09T11:27:17;5.57;;;5.43;;
7231;SDS011;3657;49.630;11.018;2023-05-09T11:29:48;5.93;;;5.57;;
7231;SDS011;3657;49.630;11.018;2023-05-09T11:32:16;5.27;;;5.07;;
7231;SDS011;3657;49.630;11.018;2023-05-09T11:34:44;4.73;;;4.53;;
7231;SDS011;3657;49.630;11.018;2023-05-09T11:37:11;5.00;;;4.90;;
7231;SDS011;3657;49.630;11.018;2023-05-09T11:39:54;5.40;;;5.30;;
7231;SDS011;3657;49.630;11.018;2023-05-09T11:42:23;4.97;;;4.87;;
7231;SDS011;3657;49.630;11.018;2023-05-09T11:44:52;4.93;;;4.73;;
7231;SDS011;3657;49.630;11.018;2023-05-09T11:47:19;6.07;;;5.77;;
7231;SDS011;3657;49.630;11.018;2023-05-09T11:49:46;5.67;;;5.47;;
7231;SDS011;3657;49.630;11.018;2023-05-09T11:52:13;5.53;;;5.30;;
7231;SDS011;3657;49.630;11.018;2023-05-09T11:54:40;5.97;;;5.70;;
7231;SDS011;3657;49.630;11.018;2023-05-09T11:57:07;5.57;;;5.20;;
7231;SDS011;3657;49.630;11.018;2023-05-09T11:59:36;6.33;;;5.93;;
7231;SDS011;3657;49.630;11.018;2023-05-09T12:02:03;5.20;;;5.03;;
7231;SDS011;3657;49.630;11.018;2023-05-09T12:04:31;5.90;;;5.70;;
7231;SDS011;3657;49.630;11.018;2023-05-09T12:06:58;5.53;;;5.33;;
7231;SDS011;3657;49.630;11.018;2023-05-09T12:09:28;5.47;;;5.07;;
7231;SDS011;3657;49.630;11.018;2023-05-09T12:11:56;4.43;;;4.33;;
7231;SDS011;3657;49.630;11.018;2023-05-09T12:14:27;4.80;;;4.70;;
7231;SDS011;3657;49.630;11.018;2023-05-09T12:16:56;5.27;;;5.00;;
7231;SDS011;3657;49.630;11.018;2023-05-09T12:19:23;5.40;;;5.27;;
7231;SDS011;3657;49.630;11.018;2023-05-09T12:21:53;5.40;;;5.20;;
7231;SDS011;3657;49.630;11.018;2023-05-09T12:24:21;5.13;;;4.93;;
7231;SDS011;3657;49.630;11.018;2023-05-09T12:26:50;4.70;;;4.60;;
7231;SDS011;3657;49.630;11.018;2023-05-09T12:29:17;5.73;;;5.43;;
7231;SDS011;3657;49.630;11.018;2023-05-09T12:31:44;5.33;;;5.23;;
7231;SDS011;3657;49.630;11.018;2023-05-09T12:34:13;5.63;;;5.43;;
7231;SDS011;3657;49.630;11.018;2023-05-09T12:36:42;5.23;;;5.00;;
7231;SDS011;3657;49.630;11.018;2023-05-09T12:39:14;4.50;;;4.40;;
7231;SDS011;3657;49.630;11.018;2023-05-09T12:41:42;4.83;;;4.73;;
7231;SDS011;3657;49.630;11.018;2023-05-09T12:44:16;5.63;;;5.43;;
7231;SDS011;3657;49.630;11.018;2023-05-09T12:46:51;5.07;;;4.87;;
7231;SDS011;3657;49.630;11.018;2023-05-09T12:49:20;5.40;;;5.20;;
7231;SDS011;3657;49.630;11.018;2023-05-09T12:51:47;4.63;;;4.53;;
7231;SDS011;3657;49.630;11.018;2023-05-09T12:54:18;4.60;;;4.50;;
7231;SDS011;3657;49.630;11.018;2023-05-09T12:56:45;5.30;;;5.00;;
7231;SDS011;3657;49.630;11.018;2023-05-09T12:59:12;5.33;;;5.10;;
7231;SDS011;3657;49.630;11.018;2023-05-09T13:01:39;4.43;;;4.23;;
7231;SDS011;3657;49.630;11.018;2023-05-09T13:04:06;5.17;;;5.07;;
7231;SDS011;3657;49.630;11.018;2023-05-09T13:06:45;4.77;;;4.67;;
7231;SDS011;3657;49.630;11.018;2023-05-09T13:09:13;4.40;;;4.30;;
7231;SDS011;3657;49.630;11.018;2023-05-09T13:11:40;4.17;;;3.97;;
7231;SDS011;3657;49.630;11.018;2023-05-09T13:14:07;3.93;;;3.73;;
7231;SDS011;3657;49.630;11.018;2023-05-09T13:16:34;4.63;;;4.43;;
7231;SDS011;3657;49.630;11.018;2023-05-09T13:19:00;4.63;;;4.43;;
7231;SDS011;3657;49.630;11.018;2023-05-09T13:21:29;3.43;;;3.33;;
7231;SDS011;3657;49.630;11.018;2023-05-09T13:23:57;4.57;;;4.37;;
7231;SDS011;3657;49.630;11.018;2023-05-09T13:26:24;4.43;;;4.13;;
7231;SDS011;3657;49.630;11.018;2023-05-09T13:28:51;4.07;;;3.80;;
7231;SDS011;3657;49.630;11.018;2023-05-09T13:31:18;4.00;;;3.83;;
7231;SDS011;3657;49.630;11.018;2023-05-09T13:33:45;3.83;;;3.53;;
7231;SDS011;3657;49.630;11.018;2023-05-09T13:36:12;3.93;;;3.73;;
7231;SDS011;3657;49.630;11.018;2023-05-09T13:38:38;4.33;;;4.13;;
7231;SDS011;3657;49.630;11.018;2023-05-09T13:41:07;4.00;;;3.80;;
7231;SDS011;3657;49.630;11.018;2023-05-09T13:43:35;4.53;;;4.23;;
7231;SDS011;3657;49.630;11.018;2023-05-09T13:46:02;4.03;;;3.93;;
7231;SDS011;3657;49.630;11.018;2023-05-09T13:48:29;4.40;;;4.30;;
7231;SDS011;3657;49.630;11.018;2023-05-09T13:50:55;4.93;;;4.53;;
7231;SDS011;3657;49.630;11.018;2023-05-09T13:53:23;4.53;;;4.43;;
7231;SDS011;3657;49.630;11.018;2023-05-09T13:55:50;3.90;;;3.60;;
7231;SDS011;3657;49.630;11.018;2023-05-09T13:58:18;4.33;;;4.00;;
7231;SDS011;3657;49.630;11.018;2023-05-09T14:00:45;4.83;;;4.60;;
7231;SDS011;3657;49.630;11.018;2023-05-09T14:03:12;4.30;;;4.10;;
7231;SDS011;3657;49.630;11.018;2023-05-09T14:05:38;3.30;;;3.20;;
7231;SDS011;3657;49.630;11.018;2023-05-09T14:08:06;4.27;;;4.17;;
7231;SDS011;3657;49.630;11.018;2023-05-09T14:10:32;3.90;;;3.80;;
7231;SDS011;3657;49.630;11.018;2023-05-09T14:12:59;4.43;;;4.17;;
7231;SDS011;3657;49.630;11.018;2023-05-09T14:15:27;3.70;;;3.43;;
7231;SDS011;3657;49.630;11.018;2023-05-09T14:17:54;3.90;;;3.80;;
7231;SDS011;3657;49.630;11.018;2023-05-09T14:20:21;4.77;;;3.73;;
7231;SDS011;3657;49.630;11.018;2023-05-09T14:22:48;4.10;;;4.00;;
7231;SDS011;3657;49.630;11.018;2023-05-09T14:25:15;3.23;;;3.13;;
7231;SDS011;3657;49.630;11.018;2023-05-09T14:27:42;4.43;;;4.20;;
7231;SDS011;3657;49.630;11.018;2023-05-09T14:30:09;4.00;;;3.90;;
7231;SDS011;3657;49.630;11.018;2023-05-09T14:32:38;4.23;;;4.03;;
7231;SDS011;3657;49.630;11.018;2023-05-09T14:35:05;3.73;;;3.53;;
7231;SDS011;3657;49.630;11.018;2023-05-09T14:37:32;3.70;;;3.50;;
7231;SDS011;3657;49.630;11.018;2023-05-09T14:39:58;4.17;;;3.97;;
7231;SDS011;3657;49.630;11.018;2023-05-09T14:42:29;3.80;;;3.70;;
7231;SDS011;3657;49.630;11.018;2023-05-09T14:44:56;4.67;;;4.47;;
7231;SDS011;3657;49.630;11.018;2023-05-09T14:47:23;3.80;;;3.70;;
7231;SDS011;3657;49.630;11.018;2023-05-09T14:49:51;4.30;;;4.10;;
7231;SDS011;3657;49.630;11.018;2023-05-09T14:52:18;3.47;;;3.30;;
7231;SDS011;3657;49.630;11.018;2023-05-09T14:54:44;3.27;;;3.17;;